Time;durP1;ratioP1;P1;durP2;ratioP2;P2;SDS_P1;SDS_P2;PMS_P1;PMS_P2;Temp;Humidity;BMP_temperature;BMP_pressure;BME280_temperature;BME280_humidity;BME280_pressure;Samples;Min_cycle;Max_cycle;Signal;HPM_P1;HPM_P2
2023/10/13 00:01:33;;;;;;;0.53;0.50;;;19.50;36.30;;;;;;5076627;28;20648;-72
2023/10/13 00:04:05;;;;;;;1.60;0.70;;;19.70;35.70;;;;;;5074782;28;20183;-73
2023/10/13 00:06:32;;;;;;;0.87;0.60;;;19.50;35.30;;;;;;5077241;28;20211;-71
2023/10/13 00:09:00;;;;;;;1.00;0.60;;;19.50;35.80;;;;;;5077082;28;20746;-70
2023/10/13 00:11:28;;;;;;;1.03;0.70;;;19.60;36.00;;;;;;5075513;28;20675;-71
2023/10/13 00:13:55;;;;;;;1.23;0.83;;;19.70;35.70;;;;;;5053611;28;20176;-65
2023/10/13 00:16:27;;;;;;;2.13;0.73;;;20.00;36.20;;;;;;5071233;28;20183;-71
2023/10/13 00:18:57;;;;;;;2.60;0.70;;;20.30;35.10;;;;;;5073729;28;20269;-67
2023/10/13 00:21:31;;;;;;;1.43;0.70;;;20.20;34.90;;;;;;5072380;28;20277;-68
2023/10/13 00:24:07;;;;;;;4.13;2.10;;;20.30;34.40;;;;;;5073676;28;20270;-67
2023/10/13 00:26:36;;;;;;;2.17;0.80;;;20.00;34.20;;;;;;5075663;28;20215;-67
2023/10/13 00:31:40;;;;;;;3.27;0.70;;;20.30;34.10;;;;;;5075060;28;22052;-65
2023/10/13 00:34:25;;;;;;;0.80;0.50;;;20.40;34.00;;;;;;5075799;28;20244;-70
2023/10/13 00:39:45;;;;;;;0.53;0.50;;;20.30;33.30;;;;;;5062552;28;20643;-71
2023/10/13 00:42:23;;;;;;;1.27;0.70;;;20.50;33.90;;;;;;5075289;28;20187;-76
2023/10/13 00:44:54;;;;;;;1.80;0.73;;;20.30;33.70;;;;;;5075605;28;20182;-72
2023/10/13 00:47:48;;;;;;;1.50;0.50;;;20.50;33.90;;;;;;5075829;28;20219;-74
2023/10/13 00:50:17;;;;;;;0.63;0.60;;;20.70;33.80;;;;;;5075867;28;20201;-73
2023/10/13 00:52:50;;;;;;;1.13;0.57;;;20.70;33.50;;;;;;5075347;28;20211;-76
2023/10/13 00:55:22;;;;;;;2.27;0.70;;;20.80;33.10;;;;;;5071558;28;20213;-69
2023/10/13 00:57:55;;;;;;;4.13;0.80;;;20.90;31.90;;;;;;5075344;28;20190;-78
2023/10/13 01:00:28;;;;;;;2.07;0.60;;;21.10;31.00;;;;;;5075183;28;20175;-69
2023/10/13 01:02:56;;;;;;;2.97;0.70;;;21.00;30.90;;;;;;5076349;28;20171;-76
2023/10/13 01:05:27;;;;;;;0.90;0.80;;;20.70;31.50;;;;;;5075333;28;20183;-77
2023/10/13 01:07:54;;;;;;;1.17;0.70;;;20.80;31.60;;;;;;5077279;28;20187;-68
2023/10/13 01:10:32;;;;;;;2.63;0.77;;;21.00;31.30;;;;;;5077485;28;20175;-71
2023/10/13 01:13:02;;;;;;;1.53;0.60;;;21.30;31.60;;;;;;5078102;28;20171;-72
2023/10/13 01:15:30;;;;;;;0.87;0.67;;;21.50;31.20;;;;;;5076672;28;20189;-80
2023/10/13 01:18:16;;;;;;;1.13;0.60;;;21.80;30.30;;;;;;5074973;28;20187;-71
2023/10/13 01:20:45;;;;;;;1.97;0.60;;;21.80;29.50;;;;;;5074774;28;20228;-77
2023/10/13 01:23:23;;;;;;;2.43;0.70;;;21.50;29.60;;;;;;5075407;28;20187;-72
2023/10/13 01:25:53;;;;;;;2.63;0.93;;;21.70;29.40;;;;;;5075517;28;20293;-73
2023/10/13 01:28:21;;;;;;;1.50;0.70;;;22.00;29.20;;;;;;5068209;28;20219;-72
2023/10/13 01:30:52;;;;;;;0.70;0.60;;;22.10;29.30;;;;;;5070865;28;20188;-69
2023/10/13 01:33:29;;;;;;;1.60;0.87;;;22.20;29.50;;;;;;5075770;28;20254;-66
2023/10/13 01:35:59;;;;;;;1.80;0.70;;;22.50;29.80;;;;;;5074238;28;20194;-72
2023/10/13 01:38:27;;;;;;;2.33;0.60;;;22.40;29.80;;;;;;5074711;28;20200;-70
2023/10/13 01:40:56;;;;;;;2.70;0.70;;;22.70;29.30;;;;;;5074333;28;20229;-70
2023/10/13 01:43:24;;;;;;;2.03;0.60;;;22.60;28.80;;;;;;5074423;28;20198;-66
2023/10/13 01:45:51;;;;;;;1.57;0.60;;;22.80;27.70;;;;;;5073856;28;20713;-77
2023/10/13 01:48:21;;;;;;;1.53;0.57;;;23.00;27.60;;;;;;5074451;28;20261;-72
2023/10/13 01:50:55;;;;;;;1.07;0.70;;;23.00;27.20;;;;;;5074154;28;20218;-68
2023/10/13 01:53:23;;;;;;;3.13;0.60;;;23.10;27.80;;;;;;5074441;28;20190;-68
2023/10/13 01:55:50;;;;;;;1.57;0.70;;;23.10;27.70;;;;;;5073964;28;20453;-73
2023/10/13 01:58:22;;;;;;;1.30;0.60;;;23.30;26.90;;;;;;5074053;28;20181;-72
2023/10/13 02:00:50;;;;;;;2.03;0.70;;;23.70;25.80;;;;;;5074869;28;20175;-69
2023/10/13 02:03:17;;;;;;;0.77;0.57;;;23.60;25.10;;;;;;5073529;28;20176;-79
2023/10/13 02:05:52;;;;;;;0.67;0.50;;;23.60;25.50;;;;;;5070216;28;20207;-73
2023/10/13 02:08:24;;;;;;;2.83;0.50;;;23.60;25.30;;;;;;5072939;28;20187;-71
2023/10/13 02:10:53;;;;;;;3.03;0.60;;;23.50;25.30;;;;;;5072131;28;20637;-69
2023/10/13 02:13:22;;;;;;;2.67;0.70;;;23.50;25.70;;;;;;5073133;28;20183;-75
2023/10/13 02:15:56;;;;;;;1.03;0.53;;;24.10;25.90;;;;;;5072560;28;20179;-79
2023/10/13 02:18:34;;;;;;;0.90;0.60;;;24.40;25.10;;;;;;5073929;28;20519;-73
2023/10/13 02:21:12;;;;;;;1.10;0.60;;;24.40;24.90;;;;;;5069311;28;20226;-73
2023/10/13 02:23:59;;;;;;;1.50;0.60;;;24.60;24.70;;;;;;5073104;28;20186;-74
2023/10/13 02:26:31;;;;;;;1.20;0.50;;;24.80;25.10;;;;;;5071639;28;20199;-77
2023/10/13 02:29:07;;;;;;;1.83;0.80;;;24.80;24.70;;;;;;5073416;28;20553;-79
2023/10/13 02:31:38;;;;;;;1.03;0.53;;;25.00;25.30;;;;;;5055317;28;20580;-69
2023/10/13 02:34:08;;;;;;;1.80;0.60;;;24.60;24.40;;;;;;5073495;28;20175;-79
2023/10/13 02:36:38;;;;;;;1.60;0.53;;;24.80;24.80;;;;;;5073997;28;20206;-81
2023/10/13 02:39:08;;;;;;;1.23;0.67;;;24.80;25.10;;;;;;5073897;28;20189;-79
2023/10/13 02:41:41;;;;;;;1.67;0.60;;;25.00;25.00;;;;;;5073276;28;20179;-81
2023/10/13 02:44:11;;;;;;;0.67;0.57;;;24.80;24.60;;;;;;5073369;28;20292;-70
2023/10/13 02:46:43;;;;;;;1.57;0.57;;;25.00;24.60;;;;;;5073496;28;20203;-69
2023/10/13 02:49:10;;;;;;;5.97;0.70;;;25.10;24.60;;;;;;5072738;28;20661;-79
2023/10/13 02:51:42;;;;;;;1.40;0.67;;;25.80;24.40;;;;;;5072942;28;20186;-74
2023/10/13 02:54:18;;;;;;;2.27;0.67;;;25.60;23.90;;;;;;5071911;28;20175;-69
2023/10/13 02:56:59;;;;;;;1.53;0.40;;;25.50;24.30;;;;;;5065920;28;20257;-72
2023/10/13 03:02:28;;;;;;;1.03;0.53;;;25.80;24.30;;;;;;5073109;28;20693;-77
2023/10/13 03:05:08;;;;;;;0.60;0.50;;;26.50;23.60;;;;;;5072408;28;20178;-73
2023/10/13 03:07:37;;;;;;;1.97;0.60;;;26.50;23.50;;;;;;5054202;28;20565;-78
2023/10/13 03:10:11;;;;;;;1.07;0.50;;;26.80;23.80;;;;;;5054869;28;20269;-68
2023/10/13 03:12:40;;;;;;;0.83;0.60;;;27.40;23.80;;;;;;5070765;28;20285;-70
2023/10/13 03:17:45;;;;;;;2.73;0.60;;;27.50;23.70;;;;;;5066881;28;20186;-71
2023/10/13 03:20:31;;;;;;;5.80;0.60;;;27.40;24.40;;;;;;5070757;28;20211;-69
2023/10/13 03:23:09;;;;;;;2.57;0.60;;;27.50;27.40;;;;;;5060863;28;20240;-70
2023/10/13 03:25:55;;;;;;;1.50;0.60;;;27.20;29.10;;;;;;5071249;28;20210;-69
2023/10/13 03:28:33;;;;;;;2.90;0.60;;;26.40;30.50;;;;;;5070383;28;20182;-67
2023/10/13 03:31:01;;;;;;;0.97;0.57;;;26.40;30.90;;;;;;5071325;28;20175;-73
2023/10/13 03:33:29;;;;;;;1.67;0.73;;;25.60;32.50;;;;;;5071297;28;20277;-71
2023/10/13 03:36:05;;;;;;;2.83;0.70;;;26.00;31.60;;;;;;5070840;28;20183;-67
2023/10/13 03:38:36;;;;;;;3.40;0.70;;;25.60;31.50;;;;;;5071363;28;20178;-70
2023/10/13 03:41:20;;;;;;;4.20;0.90;;;24.90;33.10;;;;;;5070465;28;20175;-70
2023/10/13 03:44:14;;;;;;;2.07;0.60;;;25.10;32.90;;;;;;5067920;28;20187;-70
2023/10/13 03:46:41;;;;;;;5.47;0.90;;;24.90;32.90;;;;;;5070891;28;20744;-73
2023/10/13 03:49:12;;;;;;;1.67;0.80;;;25.60;32.90;;;;;;5071942;28;20177;-70
2023/10/13 03:51:40;;;;;;;2.47;0.50;;;25.60;32.10;;;;;;5071425;28;20187;-68
2023/10/13 03:54:08;;;;;;;2.73;0.60;;;25.00;32.50;;;;;;5071602;28;20184;-68
2023/10/13 03:56:39;;;;;;;1.47;0.70;;;25.60;31.80;;;;;;5069893;28;20203;-69
2023/10/13 03:59:35;;;;;;;2.30;0.50;;;25.60;31.40;;;;;;5070963;28;20187;-70
2023/10/13 04:01:58;;;;;;;2.37;0.77;;;26.10;31.20;;;;;;5069648;28;20274;-68
2023/10/13 04:15:17;;;;;;;3.80;0.70;;;27.90;28.50;;;;;;5034394;28;20195;-68
2023/10/13 04:17:45;;;;;;;2.23;0.80;;;27.40;28.40;;;;;;5059702;28;20229;-71
2023/10/13 04:20:19;;;;;;;0.77;0.53;;;26.80;29.40;;;;;;5071774;28;20223;-69
2023/10/13 04:28:37;;;;;;;0.97;0.70;;;27.20;29.80;;;;;;5006912;28;20302;-68
2023/10/13 04:31:24;;;;;;;2.30;0.60;;;27.60;28.30;;;;;;5063545;28;20610;-68
2023/10/13 04:33:52;;;;;;;1.70;0.70;;;27.70;28.90;;;;;;5069872;28;20183;-69
2023/10/13 04:37:28;;;;;;;7.60;1.00;;;27.50;29.10;;;;;;5052668;28;20175;-67
2023/10/13 04:39:13;;;;;;;5.63;0.70;;;27.50;31.60;;;;;;5060074;28;20199;-68
2023/10/13 04:49:29;;;;;;;2.50;0.40;;;26.20;32.40;;;;;;5075358;28;20590;-67
2023/10/13 04:52:01;;;;;;;5.80;0.80;;;25.80;32.60;;;;;;5069965;28;20192;-67
2023/10/13 05:51:58;;;;;;;2.83;0.50;;;26.20;33.20;;;;;;5069728;28;20633;-72
2023/10/13 06:30:21;;;;;;;4.17;0.80;;;25.20;34.90;;;;;;5069853;28;20332;-69
2023/10/13 06:32:49;;;;;;;1.80;0.70;;;24.50;36.60;;;;;;5065412;28;20172;-71
2023/10/13 06:35:23;;;;;;;1.60;0.80;;;23.80;38.00;;;;;;5069088;28;20634;-68
2023/10/13 06:37:51;;;;;;;1.73;0.80;;;23.90;37.40;;;;;;5068355;28;20270;-69
2023/10/13 06:43:16;;;;;;;1.67;0.70;;;25.20;35.70;;;;;;5065783;28;20186;-71
2023/10/13 06:46:03;;;;;;;1.70;0.50;;;25.70;34.50;;;;;;5065071;28;20203;-72
2023/10/13 06:48:33;;;;;;;2.60;0.80;;;26.20;34.00;;;;;;5068476;28;20261;-70
2023/10/13 06:51:04;;;;;;;2.23;0.63;;;25.90;34.00;;;;;;5069281;28;20653;-70
2023/10/13 06:53:37;;;;;;;2.83;0.60;;;26.70;33.00;;;;;;5073310;28;20194;-71
2023/10/13 06:56:10;;;;;;;1.23;0.73;;;26.70;33.10;;;;;;5072972;28;20195;-71
2023/10/13 06:58:42;;;;;;;1.47;0.80;;;26.90;33.30;;;;;;5072744;28;20175;-68
2023/10/13 07:01:14;;;;;;;4.33;1.03;;;26.90;33.10;;;;;;5072396;28;20190;-69
2023/10/13 07:03:52;;;;;;;4.10;0.73;;;24.20;37.60;;;;;;5072009;28;20579;-70
2023/10/13 07:06:20;;;;;;;0.97;0.50;;;23.70;38.40;;;;;;5066327;28;20210;-68
2023/10/13 07:08:52;;;;;;;1.47;0.70;;;24.10;38.50;;;;;;5071080;28;20642;-72
2023/10/13 07:11:42;;;;;;;3.43;0.80;;;23.90;39.10;;;;;;5071207;28;20218;-67
2023/10/13 07:14:10;;;;;;;1.23;0.70;;;23.30;39.60;;;;;;5070538;28;20697;-68
2023/10/13 07:16:59;;;;;;;4.93;1.07;;;22.80;40.90;;;;;;5050403;28;20219;-68
2023/10/13 07:19:28;;;;;;;2.83;1.03;;;22.60;41.10;;;;;;5058270;28;20210;-68
2023/10/13 07:21:59;;;;;;;2.13;0.70;;;22.60;41.80;;;;;;5070926;28;20198;-68
2023/10/13 07:24:31;;;;;;;0.73;0.70;;;23.00;40.50;;;;;;5071143;28;20649;-69
2023/10/13 07:27:07;;;;;;;3.80;0.90;;;23.10;40.10;;;;;;5070461;28;20268;-69
2023/10/13 07:29:36;;;;;;;5.50;0.90;;;23.70;39.50;;;;;;5072139;28;20175;-72
2023/10/13 07:32:05;;;;;;;2.07;0.80;;;23.60;39.90;;;;;;5068797;28;20637;-70
2023/10/13 07:34:32;;;;;;;2.03;0.90;;;23.20;40.70;;;;;;5071383;28;20190;-69
2023/10/13 07:37:00;;;;;;;4.17;0.90;;;22.80;41.90;;;;;;5072803;28;20186;-70
2023/10/13 07:39:39;;;;;;;4.70;1.13;;;22.20;43.00;;;;;;5052536;28;20586;-70
2023/10/13 07:42:15;;;;;;;4.50;1.33;;;21.60;44.30;;;;;;5072216;28;20236;-71
2023/10/13 07:44:55;;;;;;;2.77;1.30;;;21.30;45.20;;;;;;5072289;28;20174;-72
2023/10/13 07:47:24;;;;;;;3.47;1.00;;;21.00;45.20;;;;;;5071755;28;20675;-72
2023/10/13 07:49:51;;;;;;;2.43;0.87;;;20.80;45.60;;;;;;5052478;28;20317;-70
2023/10/13 07:55:09;;;;;;;6.07;2.57;;;20.70;45.50;;;;;;5072774;28;20171;-71
2023/10/13 07:57:56;;;;;;;2.20;1.50;;;20.50;46.50;;;;;;5068840;28;20580;-69
2023/10/13 08:06:45;;;;;;;4.53;0.93;;;20.00;48.10;;;;;;5071611;28;20240;-72
2023/10/13 08:08:43;;;;;;;1.57;1.10;;;20.00;48.40;;;;;;5051541;28;20206;-71
2023/10/13 08:11:11;;;;;;;2.23;0.80;;;20.00;48.90;;;;;;5070761;28;20222;-68
2023/10/13 08:13:46;;;;;;;1.97;1.13;;;19.90;49.10;;;;;;5071486;28;20634;-68
2023/10/13 08:16:22;;;;;;;2.70;1.00;;;19.90;49.20;;;;;;5067106;28;20266;-71
2023/10/13 08:18:50;;;;;;;2.57;1.27;;;19.90;49.70;;;;;;5071262;28;20194;-72
2023/10/13 08:21:25;;;;;;;5.23;0.90;;;19.80;49.90;;;;;;5071412;28;20261;-68
2023/10/13 08:26:30;;;;;;;2.60;1.10;;;19.60;50.70;;;;;;5074986;28;20218;-69
2023/10/13 08:50:52;;;;;;;5.17;1.33;;;19.30;53.00;;;;;;5063781;28;20176;-67
2023/10/13 08:53:31;;;;;;;1.87;1.10;;;19.20;53.10;;;;;;5067115;28;20266;-70
2023/10/13 08:56:05;;;;;;;2.80;1.33;;;19.10;53.20;;;;;;5070827;28;20285;-69
2023/10/13 09:04:22;;;;;;;5.43;1.20;;;19.10;51.70;;;;;;5069736;28;20537;-68
2023/10/13 09:12:36;;;;;;;4.43;1.60;;;19.30;48.60;;;;;;5071998;28;20527;-69
2023/10/13 09:21:16;;;;;;;2.20;1.07;;;19.60;45.30;;;;;;5057628;28;20215;-69
2023/10/13 09:23:24;;;;;;;3.53;1.30;;;19.70;44.40;;;;;;5067380;28;20205;-74
2023/10/13 09:26:08;;;;;;;4.60;1.20;;;19.70;44.20;;;;;;5074157;28;20230;-71
2023/10/13 09:28:39;;;;;;;2.87;1.00;;;19.70;44.20;;;;;;5075476;28;20202;-66
2023/10/13 09:31:10;;;;;;;1.67;0.97;;;19.80;44.20;;;;;;5075161;28;20179;-65
2023/10/13 09:33:47;;;;;;;1.87;0.90;;;19.80;44.10;;;;;;5071563;28;20191;-70
2023/10/13 09:36:17;;;;;;;3.73;1.23;;;19.80;44.20;;;;;;5075080;28;20592;-68
2023/10/13 09:39:12;;;;;;;4.23;1.30;;;19.80;44.30;;;;;;5074299;28;20211;-66
2023/10/13 09:41:52;;;;;;;4.13;1.23;;;19.70;44.30;;;;;;5072242;28;20237;-67
2023/10/13 09:44:21;;;;;;;3.90;0.90;;;19.70;44.30;;;;;;5071071;28;20175;-68
2023/10/13 09:46:49;;;;;;;2.80;1.27;;;19.70;44.50;;;;;;5063499;28;20263;-68
2023/10/13 09:49:33;;;;;;;1.90;0.97;;;19.60;44.50;;;;;;5072661;28;20183;-70
2023/10/13 09:52:04;;;;;;;2.77;0.90;;;19.70;44.50;;;;;;5073697;28;20618;-68
2023/10/13 09:54:41;;;;;;;1.67;0.97;;;19.60;44.50;;;;;;5073873;28;20203;-67
2023/10/13 09:57:24;;;;;;;6.03;1.10;;;19.60;44.50;;;;;;5072634;28;20194;-67
2023/10/13 10:00:06;;;;;;;2.00;0.90;;;19.60;44.70;;;;;;5071440;28;20187;-69
2023/10/13 10:02:43;;;;;;;3.47;1.00;;;19.60;44.70;;;;;;5072245;28;20664;-66
2023/10/13 10:05:21;;;;;;;3.30;1.13;;;19.50;44.90;;;;;;5070459;28;20191;-74
2023/10/13 10:07:59;;;;;;;2.57;0.90;;;19.40;45.10;;;;;;5065621;28;20254;-68
2023/10/13 10:10:56;;;;;;;4.73;1.33;;;19.40;45.10;;;;;;5069922;28;20266;-68
2023/10/13 10:13:44;;;;;;;2.63;0.90;;;19.30;45.30;;;;;;5066389;28;20262;-69
2023/10/13 10:16:19;;;;;;;2.63;0.90;;;19.30;45.50;;;;;;5072104;28;20217;-68
2023/10/13 10:18:47;;;;;;;2.83;1.10;;;19.30;45.50;;;;;;5069034;28;20178;-74
2023/10/13 10:21:16;;;;;;;4.17;1.10;;;19.30;45.60;;;;;;5068487;28;20317;-68
2023/10/13 10:23:53;;;;;;;1.83;0.90;;;19.30;45.80;;;;;;5068697;28;20637;-68
2023/10/13 10:26:25;;;;;;;2.00;0.90;;;19.20;45.90;;;;;;5072771;28;20693;-67
2023/10/13 10:28:54;;;;;;;1.70;0.83;;;19.20;46.10;;;;;;5071419;28;20184;-68
2023/10/13 10:31:36;;;;;;;2.90;1.17;;;19.10;46.10;;;;;;5073825;28;20183;-69
2023/10/13 10:34:32;;;;;;;2.23;1.00;;;19.10;46.20;;;;;;5057285;28;20189;-69
2023/10/13 10:37:00;;;;;;;2.73;1.10;;;19.00;46.20;;;;;;5069731;28;20569;-67
2023/10/13 10:39:46;;;;;;;1.73;1.00;;;19.10;46.20;;;;;;5066086;28;20245;-71
2023/10/13 10:42:23;;;;;;;2.13;0.90;;;19.10;46.30;;;;;;5067876;28;20187;-68
2023/10/13 10:45:05;;;;;;;2.00;1.00;;;19.00;46.50;;;;;;5066046;28;20544;-69
2023/10/13 10:47:33;;;;;;;1.07;0.80;;;19.00;46.70;;;;;;5072969;28;20207;-69
2023/10/13 10:50:08;;;;;;;1.30;0.80;;;18.90;46.90;;;;;;5071235;28;20203;-75
2023/10/13 10:52:39;;;;;;;0.83;0.83;;;18.90;47.00;;;;;;5072888;28;20201;-71
2023/10/13 10:55:12;;;;;;;3.13;0.97;;;18.90;47.10;;;;;;5073976;28;20176;-68
2023/10/13 10:57:48;;;;;;;2.67;0.83;;;18.80;47.10;;;;;;5067823;28;20191;-70
2023/10/13 11:00:20;;;;;;;3.03;1.07;;;18.80;47.20;;;;;;5053916;28;20265;-68
2023/10/13 11:02:57;;;;;;;6.57;1.50;;;18.80;47.50;;;;;;5073285;28;20254;-69
2023/10/13 11:05:32;;;;;;;1.97;1.03;;;18.80;47.50;;;;;;5072652;28;20182;-68
2023/10/13 11:07:59;;;;;;;2.40;1.03;;;18.70;47.60;;;;;;5072309;28;20204;-70
2023/10/13 11:10:27;;;;;;;3.67;0.90;;;18.70;47.80;;;;;;5070378;28;20180;-66
2023/10/13 11:13:21;;;;;;;1.30;0.80;;;18.70;47.80;;;;;;5072008;28;20209;-66
2023/10/13 11:15:50;;;;;;;2.67;1.17;;;18.60;48.10;;;;;;5066154;28;20258;-69
2023/10/13 11:18:23;;;;;;;3.00;0.90;;;18.60;48.20;;;;;;5070988;28;20190;-69
2023/10/13 11:20:56;;;;;;;3.13;1.03;;;18.60;48.10;;;;;;5072604;28;20219;-68
2023/10/13 11:23:25;;;;;;;4.90;1.30;;;18.50;48.40;;;;;;5073315;28;20220;-69
2023/10/13 11:25:59;;;;;;;2.07;1.03;;;18.40;48.70;;;;;;5065273;28;20306;-67
2023/10/13 11:28:31;;;;;;;2.83;1.10;;;18.30;48.80;;;;;;5065255;28;20195;-68
2023/10/13 11:30:59;;;;;;;1.67;1.20;;;18.40;49.00;;;;;;5072686;28;20645;-73
2023/10/13 11:35:56;;;;;;;4.93;1.13;;;18.30;49.40;;;;;;5070349;28;20194;-72
2023/10/13 11:39:17;;;;;;;2.07;1.07;;;18.20;49.50;;;;;;5072463;28;20689;-67
2023/10/13 11:41:22;;;;;;;2.87;0.93;;;18.20;49.60;;;;;;5062487;28;20211;-70
2023/10/13 11:44:07;;;;;;;1.77;1.20;;;18.20;50.00;;;;;;5072415;28;20219;-68
2023/10/13 11:51:48;;;;;;;2.03;1.00;;;18.00;50.50;;;;;;5073773;28;20217;-73
2023/10/13 11:54:21;;;;;;;2.27;1.07;;;18.00;50.60;;;;;;5073313;28;20174;-71
2023/10/13 11:56:50;;;;;;;3.50;1.10;;;18.00;50.90;;;;;;5074169;28;20182;-67
2023/10/13 11:59:17;;;;;;;4.33;1.20;;;17.90;50.90;;;;;;5076746;28;20175;-70
2023/10/13 12:04:51;;;;;;;1.70;1.10;;;17.80;51.30;;;;;;5069816;28;20217;-70
2023/10/13 12:12:28;;;;;;;3.03;1.00;;;17.70;51.70;;;;;;5073232;28;20261;-68
2023/10/13 12:14:56;;;;;;;2.67;0.97;;;17.80;51.40;;;;;;5071062;28;20328;-70
2023/10/13 12:17:35;;;;;;;4.40;1.20;;;17.80;51.20;;;;;;5074867;28;20175;-66
2023/10/13 12:20:10;;;;;;;2.03;1.00;;;17.80;51.10;;;;;;5058459;28;20227;-70
2023/10/13 12:22:51;;;;;;;1.93;0.90;;;17.80;51.10;;;;;;5075363;28;20337;-70
2023/10/13 12:25:25;;;;;;;2.03;1.40;;;17.80;51.10;;;;;;5076898;28;20214;-67
2023/10/13 12:28:12;;;;;;;2.13;1.10;;;17.80;51.20;;;;;;5074138;28;20665;-71
2023/10/13 12:30:51;;;;;;;4.53;1.13;;;17.80;51.30;;;;;;5069795;28;20179;-71
2023/10/13 12:33:24;;;;;;;2.83;1.20;;;17.70;51.30;;;;;;5073468;28;20190;-68
2023/10/13 12:49:57;;;;;;;2.10;1.03;;;17.90;50.70;;;;;;5076267;28;20201;-75
2023/10/13 12:52:45;;;;;;;1.80;1.10;;;17.80;50.90;;;;;;5057458;28;20180;-74
2023/10/13 12:55:14;;;;;;;2.57;1.07;;;17.90;50.90;;;;;;5074037;28;20198;-76
2023/10/13 12:57:45;;;;;;;2.10;1.00;;;17.80;51.20;;;;;;5075984;28;20175;-77
2023/10/13 13:00:33;;;;;;;3.90;1.60;;;17.80;51.20;;;;;;5077391;28;20527;-79
2023/10/13 13:03:00;;;;;;;1.60;1.03;;;17.80;51.50;;;;;;5064404;28;20183;-73
2023/10/13 13:05:31;;;;;;;1.63;0.90;;;17.80;51.40;;;;;;5076187;28;20179;-67
2023/10/13 13:08:01;;;;;;;6.17;1.57;;;17.80;51.50;;;;;;5074731;28;20744;-68
2023/10/13 13:10:37;;;;;;;1.80;0.97;;;17.80;51.60;;;;;;5077593;28;20194;-71
2023/10/13 13:13:05;;;;;;;2.90;1.03;;;17.70;51.70;;;;;;5075923;28;20183;-76
2023/10/13 13:15:32;;;;;;;4.83;1.30;;;17.70;51.90;;;;;;5075615;28;20183;-79
2023/10/13 13:18:09;;;;;;;2.20;0.90;;;17.60;52.00;;;;;;5075942;28;20179;-77
2023/10/13 13:20:43;;;;;;;1.57;0.90;;;17.60;52.10;;;;;;5075312;28;20620;-76
2023/10/13 13:23:12;;;;;;;1.63;1.00;;;17.60;52.30;;;;;;5058123;28;20236;-75
2023/10/13 13:25:42;;;;;;;1.80;1.10;;;17.60;52.20;;;;;;5075270;28;20179;-77
2023/10/13 13:28:11;;;;;;;2.80;1.03;;;17.60;52.30;;;;;;5075133;28;20186;-75
2023/10/13 13:30:41;;;;;;;1.43;0.73;;;17.60;52.50;;;;;;5074527;28;20186;-74
2023/10/13 13:33:16;;;;;;;1.33;0.87;;;17.50;52.50;;;;;;5066405;28;20591;-72
2023/10/13 13:35:43;;;;;;;2.13;1.00;;;17.50;52.60;;;;;;5069939;28;20270;-72
2023/10/13 13:38:21;;;;;;;1.53;0.80;;;17.50;52.60;;;;;;5074395;28;20261;-74
2023/10/13 13:40:49;;;;;;;1.10;0.80;;;17.50;52.90;;;;;;5074838;28;20578;-70
2023/10/13 13:43:37;;;;;;;2.40;1.10;;;17.40;52.80;;;;;;5075423;28;20175;-71
2023/10/13 13:46:10;;;;;;;2.47;0.83;;;17.40;52.80;;;;;;5073411;28;20295;-67
2023/10/13 13:48:38;;;;;;;3.10;1.00;;;17.50;52.80;;;;;;5075038;28;20182;-74
2023/10/13 13:51:14;;;;;;;1.37;0.97;;;17.40;52.90;;;;;;5074797;28;20175;-74
2023/10/13 13:53:45;;;;;;;2.00;0.80;;;17.30;53.20;;;;;;5074152;28;20547;-70
2023/10/13 13:56:16;;;;;;;1.70;0.80;;;17.30;53.00;;;;;;5074463;28;20637;-75
2023/10/13 13:58:47;;;;;;;1.37;0.90;;;17.30;53.10;;;;;;5073965;28;20202;-73
2023/10/13 14:01:15;;;;;;;1.83;0.80;;;17.30;53.40;;;;;;5074490;28;20649;-71
2023/10/13 14:03:46;;;;;;;1.73;1.00;;;17.30;53.30;;;;;;5068443;28;20218;-73
2023/10/13 14:06:18;;;;;;;1.93;0.93;;;17.30;53.20;;;;;;5073834;28;20225;-69
2023/10/13 14:08:50;;;;;;;2.00;1.20;;;17.30;53.40;;;;;;5072952;28;20186;-70
2023/10/13 14:13:57;;;;;;;2.00;0.90;;;17.30;53.50;;;;;;5074065;28;20183;-73
2023/10/13 14:16:24;;;;;;;2.70;1.20;;;17.20;53.60;;;;;;5073210;28;20547;-74
2023/10/13 14:18:52;;;;;;;3.97;1.13;;;17.20;53.80;;;;;;5069805;28;20213;-71
2023/10/13 14:21:24;;;;;;;0.97;0.67;;;17.10;53.80;;;;;;5069517;28;20229;-65
2023/10/13 14:23:55;;;;;;;1.57;0.90;;;17.10;53.90;;;;;;5072167;28;20190;-71
2023/10/13 14:26:25;;;;;;;5.10;1.00;;;17.10;54.00;;;;;;5073867;28;20214;-67
2023/10/13 14:29:07;;;;;;;2.83;0.97;;;17.10;53.90;;;;;;5068595;28;20595;-74
2023/10/13 14:31:39;;;;;;;1.23;0.70;;;17.10;54.00;;;;;;5059777;28;20221;-66
2023/10/13 14:34:07;;;;;;;2.33;1.13;;;17.00;54.20;;;;;;5074458;28;20518;-70
2023/10/13 14:36:37;;;;;;;2.80;1.03;;;16.90;54.30;;;;;;5070763;28;20190;-68
2023/10/13 14:39:09;;;;;;;2.33;1.00;;;16.90;54.30;;;;;;5073928;28;20183;-68
2023/10/13 14:41:39;;;;;;;1.80;0.90;;;16.90;54.30;;;;;;5056279;28;20181;-70
2023/10/13 14:44:07;;;;;;;3.53;0.93;;;16.90;54.30;;;;;;5073746;28;20258;-73
2023/10/13 14:46:35;;;;;;;3.87;1.10;;;16.90;54.30;;;;;;5072818;28;20198;-66
2023/10/13 14:49:03;;;;;;;2.20;0.90;;;16.80;54.30;;;;;;5069265;28;20195;-70
2023/10/13 14:51:31;;;;;;;2.73;1.10;;;16.90;54.20;;;;;;5057332;28;20720;-69
2023/10/13 14:53:59;;;;;;;2.37;1.13;;;16.90;54.30;;;;;;5072668;28;20266;-70
2023/10/13 14:56:27;;;;;;;2.07;0.80;;;16.80;54.40;;;;;;5072996;28;20173;-71
2023/10/13 14:58:55;;;;;;;2.20;0.80;;;16.80;54.20;;;;;;5072429;28;20210;-66
2023/10/13 15:01:27;;;;;;;1.00;0.90;;;16.80;54.50;;;;;;5059240;28;20209;-67
2023/10/13 15:03:58;;;;;;;2.50;0.70;;;16.80;54.60;;;;;;5069761;28;20375;-65
2023/10/13 15:06:30;;;;;;;1.13;1.00;;;16.80;54.30;;;;;;5069665;28;20681;-70
2023/10/13 15:09:03;;;;;;;2.70;0.90;;;16.80;54.30;;;;;;5072755;28;20620;-68
2023/10/13 15:11:36;;;;;;;2.30;0.80;;;16.80;54.50;;;;;;5055654;28;20228;-68
2023/10/13 15:14:07;;;;;;;1.37;0.97;;;16.80;54.30;;;;;;5072963;28;20179;-71
2023/10/13 15:16:34;;;;;;;2.13;0.70;;;16.80;54.50;;;;;;5072839;28;20610;-67
2023/10/13 15:19:04;;;;;;;3.90;0.90;;;16.80;54.60;;;;;;5072905;28;20254;-68
2023/10/13 15:21:34;;;;;;;2.50;0.70;;;16.80;54.70;;;;;;5072704;28;20223;-68
2023/10/13 15:24:16;;;;;;;2.83;0.83;;;16.70;54.70;;;;;;5073131;28;20190;-67
2023/10/13 15:26:52;;;;;;;3.17;0.90;;;16.70;54.70;;;;;;5068761;28;20202;-67
2023/10/13 15:29:26;;;;;;;2.07;0.80;;;16.70;55.00;;;;;;5066908;28;20254;-68
2023/10/13 15:34:28;;;;;;;1.30;0.87;;;16.60;55.50;;;;;;5060423;28;20171;-73
2023/10/13 15:36:56;;;;;;;2.10;1.00;;;16.50;55.60;;;;;;5073039;28;20266;-66
2023/10/13 15:39:24;;;;;;;3.53;0.87;;;16.50;55.70;;;;;;5072274;28;20184;-65
2023/10/13 15:41:58;;;;;;;2.03;0.80;;;16.40;55.90;;;;;;5072531;28;20216;-66
2023/10/13 15:44:29;;;;;;;7.67;1.23;;;16.40;56.10;;;;;;5072658;28;20253;-72
2023/10/13 15:46:59;;;;;;;4.00;1.00;;;16.40;56.10;;;;;;5066681;28;20220;-71
2023/10/13 15:49:29;;;;;;;1.93;0.90;;;16.30;56.40;;;;;;5072150;28;20180;-73
2023/10/13 15:51:56;;;;;;;2.27;1.00;;;16.30;56.70;;;;;;5069857;28;20571;-69
2023/10/13 15:54:24;;;;;;;3.17;1.47;;;16.20;57.00;;;;;;5072590;28;20174;-72
2023/10/13 15:56:52;;;;;;;3.47;0.90;;;16.20;57.10;;;;;;5071169;28;20446;-69
2023/10/13 15:59:19;;;;;;;2.37;1.00;;;16.20;57.00;;;;;;5071574;28;20509;-66
2023/10/13 16:01:47;;;;;;;2.27;1.30;;;16.20;57.10;;;;;;5071476;28;20189;-66
2023/10/13 16:04:15;;;;;;;3.63;1.20;;;16.20;57.30;;;;;;5072277;28;20167;-71
2023/10/13 16:06:50;;;;;;;1.73;1.00;;;16.10;57.40;;;;;;5072308;28;20239;-69
2023/10/13 16:09:24;;;;;;;1.50;0.93;;;16.00;57.50;;;;;;5072466;28;20173;-72
2023/10/13 16:11:52;;;;;;;1.80;1.00;;;16.00;57.80;;;;;;5071232;28;20185;-68
2023/10/13 16:14:20;;;;;;;2.90;1.10;;;15.90;57.70;;;;;;5072379;28;20170;-71
2023/10/13 16:16:49;;;;;;;2.20;1.13;;;15.90;58.20;;;;;;5070366;28;20236;-71
2023/10/13 16:19:21;;;;;;;1.13;0.90;;;15.80;58.40;;;;;;5072154;28;20185;-71
2023/10/13 16:21:51;;;;;;;2.03;1.00;;;15.80;58.50;;;;;;5070904;28;20662;-70
2023/10/13 16:24:18;;;;;;;1.67;0.80;;;15.80;58.40;;;;;;5072553;28;20579;-67
2023/10/13 16:26:49;;;;;;;2.73;0.83;;;15.70;58.60;;;;;;5071969;28;20211;-69
2023/10/13 16:29:20;;;;;;;3.87;0.77;;;15.80;58.60;;;;;;5071840;28;20540;-67
2023/10/13 16:31:48;;;;;;;1.13;0.80;;;15.70;58.50;;;;;;5071801;28;20537;-69
2023/10/13 16:34:16;;;;;;;1.97;1.00;;;15.80;58.60;;;;;;5068891;28;20539;-69
2023/10/13 16:36:54;;;;;;;3.13;1.00;;;15.70;58.70;;;;;;5071561;28;20171;-69
2023/10/13 16:39:22;;;;;;;2.90;1.20;;;15.70;58.70;;;;;;5072153;28;20274;-71
2023/10/13 16:41:51;;;;;;;2.50;1.00;;;15.60;58.70;;;;;;5071359;28;20175;-71
2023/10/13 16:44:19;;;;;;;2.00;1.13;;;15.60;58.90;;;;;;5074718;28;20262;-68
2023/10/13 16:46:46;;;;;;;2.40;1.10;;;15.60;59.20;;;;;;5075323;28;20632;-73
2023/10/13 16:49:14;;;;;;;1.83;1.03;;;15.50;59.00;;;;;;5075814;28;20254;-71
2023/10/13 16:51:41;;;;;;;1.80;1.00;;;15.60;58.80;;;;;;5075474;28;20176;-75
2023/10/13 16:54:09;;;;;;;0.70;0.70;;;15.60;58.60;;;;;;5074854;28;20179;-66